sensor_id;sensor_type;location;lat;lon;timestamp;P1;durP1;ratioP1;P2;durP2;ratioP2
45842;SDS011;31563;51.744;8.252;2023-05-03T00:00:55;1.95;;;0.47;;
45842;SDS011;31563;51.744;8.252;2023-05-03T00:03:26;0.93;;;0.50;;
45842;SDS011;31563;51.744;8.252;2023-05-03T00:05:54;2.03;;;0.47;;
45842;SDS011;31563;51.744;8.252;2023-05-03T00:08:22;0.35;;;0.30;;
45842;SDS011;31563;51.744;8.252;2023-05-03T00:10:52;0.80;;;0.50;;
45842;SDS011;31563;51.744;8.252;2023-05-03T00:13:26;0.60;;;0.38;;
45842;SDS011;31563;51.744;8.252;2023-05-03T00:15:54;1.05;;;0.45;;
45842;SDS011;31563;51.744;8.252;2023-05-03T00:18:22;0.82;;;0.40;;
45842;SDS011;31563;51.744;8.252;2023-05-03T00:20:51;1.25;;;0.40;;
45842;SDS011;31563;51.744;8.252;2023-05-03T00:23:19;0.65;;;0.30;;
45842;SDS011;31563;51.744;8.252;2023-05-03T00:25:52;1.08;;;0.40;;
45842;SDS011;31563;51.744;8.252;2023-05-03T00:28:20;0.68;;;0.32;;
45842;SDS011;31563;51.744;8.252;2023-05-03T00:30:48;0.73;;;0.40;;
45842;SDS011;31563;51.744;8.252;2023-05-03T00:33:17;1.25;;;0.40;;
45842;SDS011;31563;51.744;8.252;2023-05-03T00:35:45;0.82;;;0.45;;
45842;SDS011;31563;51.744;8.252;2023-05-03T00:38:13;1.60;;;0.43;;
45842;SDS011;31563;51.744;8.252;2023-05-03T00:40:41;0.93;;;0.45;;
45842;SDS011;31563;51.744;8.252;2023-05-03T00:43:11;0.98;;;0.43;;
45842;SDS011;31563;51.744;8.252;2023-05-03T00:48:07;1.50;;;0.60;;
45842;SDS011;31563;51.744;8.252;2023-05-03T00:50:36;0.85;;;0.40;;
45842;SDS011;31563;51.744;8.252;2023-05-03T00:53:05;0.70;;;0.50;;
45842;SDS011;31563;51.744;8.252;2023-05-03T00:55:33;0.45;;;0.35;;
45842;SDS011;31563;51.744;8.252;2023-05-03T00:58:02;0.32;;;0.30;;
45842;SDS011;31563;51.744;8.252;2023-05-03T01:00:32;0.77;;;0.47;;
45842;SDS011;31563;51.744;8.252;2023-05-03T01:03:00;0.95;;;0.40;;
45842;SDS011;31563;51.744;8.252;2023-05-03T01:05:30;0.57;;;0.30;;
45842;SDS011;31563;51.744;8.252;2023-05-03T01:08:06;1.63;;;0.50;;
45842;SDS011;31563;51.744;8.252;2023-05-03T01:10:39;1.48;;;0.50;;
45842;SDS011;31563;51.744;8.252;2023-05-03T01:13:13;0.45;;;0.30;;
45842;SDS011;31563;51.744;8.252;2023-05-03T01:15:54;1.30;;;0.60;;
45842;SDS011;31563;51.744;8.252;2023-05-03T01:18:28;0.70;;;0.32;;
45842;SDS011;31563;51.744;8.252;2023-05-03T01:20:58;0.50;;;0.30;;
45842;SDS011;31563;51.744;8.252;2023-05-03T01:23:31;1.17;;;0.50;;
45842;SDS011;31563;51.744;8.252;2023-05-03T01:26:19;0.40;;;0.30;;
45842;SDS011;31563;51.744;8.252;2023-05-03T01:28:47;0.60;;;0.35;;
45842;SDS011;31563;51.744;8.252;2023-05-03T01:31:17;0.98;;;0.50;;
45842;SDS011;31563;51.744;8.252;2023-05-03T01:33:52;0.55;;;0.47;;
45842;SDS011;31563;51.744;8.252;2023-05-03T01:36:29;1.35;;;0.43;;
45842;SDS011;31563;51.744;8.252;2023-05-03T01:41:29;3.93;;;1.70;;
45842;SDS011;31563;51.744;8.252;2023-05-03T01:43:58;2.72;;;1.38;;
45842;SDS011;31563;51.744;8.252;2023-05-03T01:46:27;1.67;;;1.20;;
45842;SDS011;31563;51.744;8.252;2023-05-03T01:48:55;2.25;;;1.00;;
45842;SDS011;31563;51.744;8.252;2023-05-03T01:51:23;2.00;;;0.80;;
45842;SDS011;31563;51.744;8.252;2023-05-03T01:53:52;1.58;;;0.88;;
45842;SDS011;31563;51.744;8.252;2023-05-03T01:56:20;1.05;;;0.80;;
45842;SDS011;31563;51.744;8.252;2023-05-03T01:58:50;2.10;;;0.85;;
45842;SDS011;31563;51.744;8.252;2023-05-03T02:01:18;1.25;;;0.75;;
45842;SDS011;31563;51.744;8.252;2023-05-03T02:03:46;1.77;;;1.02;;
45842;SDS011;31563;51.744;8.252;2023-05-03T02:06:14;1.75;;;0.70;;
45842;SDS011;31563;51.744;8.252;2023-05-03T02:08:42;1.42;;;0.68;;
45842;SDS011;31563;51.744;8.252;2023-05-03T02:11:11;1.50;;;0.60;;
45842;SDS011;31563;51.744;8.252;2023-05-03T02:13:39;1.20;;;0.73;;
45842;SDS011;31563;51.744;8.252;2023-05-03T02:16:08;1.17;;;0.77;;
45842;SDS011;31563;51.744;8.252;2023-05-03T02:18:36;3.55;;;1.38;;
45842;SDS011;31563;51.744;8.252;2023-05-03T02:21:05;3.90;;;1.10;;
45842;SDS011;31563;51.744;8.252;2023-05-03T02:23:33;1.65;;;0.60;;
45842;SDS011;31563;51.744;8.252;2023-05-03T02:26:01;2.20;;;0.82;;
45842;SDS011;31563;51.744;8.252;2023-05-03T02:28:29;1.00;;;0.70;;
45842;SDS011;31563;51.744;8.252;2023-05-03T02:30:57;1.52;;;0.80;;
45842;SDS011;31563;51.744;8.252;2023-05-03T02:33:26;2.25;;;0.80;;
45842;SDS011;31563;51.744;8.252;2023-05-03T02:35:55;2.70;;;0.80;;
45842;SDS011;31563;51.744;8.252;2023-05-03T02:38:23;1.95;;;0.68;;
45842;SDS011;31563;51.744;8.252;2023-05-03T02:40:51;3.38;;;0.70;;
45842;SDS011;31563;51.744;8.252;2023-05-03T02:43:19;1.10;;;0.65;;
45842;SDS011;31563;51.744;8.252;2023-05-03T02:45:47;0.95;;;0.70;;
45842;SDS011;31563;51.744;8.252;2023-05-03T02:48:15;1.77;;;0.70;;
45842;SDS011;31563;51.744;8.252;2023-05-03T02:50:45;0.77;;;0.65;;
45842;SDS011;31563;51.744;8.252;2023-05-03T02:53:13;0.98;;;0.50;;
45842;SDS011;31563;51.744;8.252;2023-05-03T02:55:41;1.58;;;0.70;;
45842;SDS011;31563;51.744;8.252;2023-05-03T02:58:10;1.60;;;0.63;;
45842;SDS011;31563;51.744;8.252;2023-05-03T03:00:38;1.33;;;0.70;;
45842;SDS011;31563;51.744;8.252;2023-05-03T03:03:06;1.38;;;0.50;;
45842;SDS011;31563;51.744;8.252;2023-05-03T03:05:34;0.82;;;0.55;;
45842;SDS011;31563;51.744;8.252;2023-05-03T03:08:04;1.25;;;0.68;;
45842;SDS011;31563;51.744;8.252;2023-05-03T03:10:32;1.55;;;0.80;;
45842;SDS011;31563;51.744;8.252;2023-05-03T03:13:00;1.85;;;0.70;;
45842;SDS011;31563;51.744;8.252;2023-05-03T03:15:28;1.30;;;0.80;;
45842;SDS011;31563;51.744;8.252;2023-05-03T03:17:56;1.10;;;0.80;;
45842;SDS011;31563;51.744;8.252;2023-05-03T03:20:25;1.58;;;0.70;;
45842;SDS011;31563;51.744;8.252;2023-05-03T03:22:53;1.10;;;0.65;;
45842;SDS011;31563;51.744;8.252;2023-05-03T03:25:22;1.80;;;0.65;;
45842;SDS011;31563;51.744;8.252;2023-05-03T03:27:51;1.75;;;0.73;;
45842;SDS011;31563;51.744;8.252;2023-05-03T03:30:19;1.27;;;0.80;;
45842;SDS011;31563;51.744;8.252;2023-05-03T03:32:47;1.30;;;0.70;;
45842;SDS011;31563;51.744;8.252;2023-05-03T03:35:15;1.88;;;0.55;;
45842;SDS011;31563;51.744;8.252;2023-05-03T03:37:43;2.20;;;0.80;;
45842;SDS011;31563;51.744;8.252;2023-05-03T03:40:12;1.45;;;0.60;;
45842;SDS011;31563;51.744;8.252;2023-05-03T03:42:41;1.77;;;0.68;;
45842;SDS011;31563;51.744;8.252;2023-05-03T03:45:10;1.08;;;0.70;;
45842;SDS011;31563;51.744;8.252;2023-05-03T03:47:38;1.67;;;0.50;;
45842;SDS011;31563;51.744;8.252;2023-05-03T03:50:06;0.95;;;0.45;;
45842;SDS011;31563;51.744;8.252;2023-05-03T03:52:35;1.02;;;0.55;;
45842;SDS011;31563;51.744;8.252;2023-05-03T03:55:03;1.00;;;0.60;;
45842;SDS011;31563;51.744;8.252;2023-05-03T03:57:31;1.33;;;0.60;;
45842;SDS011;31563;51.744;8.252;2023-05-03T04:00:01;1.88;;;0.63;;
45842;SDS011;31563;51.744;8.252;2023-05-03T04:02:35;1.25;;;0.65;;
45842;SDS011;31563;51.744;8.252;2023-05-03T04:05:04;0.75;;;0.45;;
45842;SDS011;31563;51.744;8.252;2023-05-03T04:07:33;1.30;;;0.45;;
45842;SDS011;31563;51.744;8.252;2023-05-03T04:10:01;1.35;;;0.70;;
45842;SDS011;31563;51.744;8.252;2023-05-03T04:12:30;1.65;;;0.70;;
45842;SDS011;31563;51.744;8.252;2023-05-03T04:15:00;2.70;;;1.80;;
45842;SDS011;31563;51.744;8.252;2023-05-03T04:17:29;4.25;;;2.42;;
45842;SDS011;31563;51.744;8.252;2023-05-03T04:20:00;6.82;;;2.97;;
45842;SDS011;31563;51.744;8.252;2023-05-03T04:22:29;3.83;;;2.78;;
45842;SDS011;31563;51.744;8.252;2023-05-03T04:24:57;4.68;;;2.63;;
45842;SDS011;31563;51.744;8.252;2023-05-03T04:27:26;3.35;;;2.63;;
45842;SDS011;31563;51.744;8.252;2023-05-03T04:29:55;3.03;;;2.60;;
45842;SDS011;31563;51.744;8.252;2023-05-03T04:32:25;4.30;;;2.92;;
45842;SDS011;31563;51.744;8.252;2023-05-03T04:34:53;4.53;;;2.78;;
45842;SDS011;31563;51.744;8.252;2023-05-03T04:37:21;3.80;;;2.50;;
45842;SDS011;31563;51.744;8.252;2023-05-03T04:39:49;4.30;;;2.72;;
45842;SDS011;31563;51.744;8.252;2023-05-03T04:42:17;4.03;;;2.95;;
45842;SDS011;31563;51.744;8.252;2023-05-03T04:44:45;8.57;;;3.45;;
45842;SDS011;31563;51.744;8.252;2023-05-03T04:47:14;4.75;;;3.30;;
45842;SDS011;31563;51.744;8.252;2023-05-03T04:49:44;5.03;;;3.30;;
45842;SDS011;31563;51.744;8.252;2023-05-03T04:52:13;4.88;;;3.60;;
45842;SDS011;31563;51.744;8.252;2023-05-03T04:54:41;5.28;;;3.40;;
45842;SDS011;31563;51.744;8.252;2023-05-03T04:57:10;8.48;;;3.72;;
45842;SDS011;31563;51.744;8.252;2023-05-03T04:59:38;5.97;;;3.60;;
45842;SDS011;31563;51.744;8.252;2023-05-03T05:02:06;10.45;;;4.15;;
45842;SDS011;31563;51.744;8.252;2023-05-03T05:04:35;7.80;;;3.78;;
45842;SDS011;31563;51.744;8.252;2023-05-03T05:07:04;7.57;;;3.40;;
45842;SDS011;31563;51.744;8.252;2023-05-03T05:09:33;5.53;;;3.45;;
45842;SDS011;31563;51.744;8.252;2023-05-03T05:12:01;6.25;;;3.50;;
45842;SDS011;31563;51.744;8.252;2023-05-03T05:14:30;6.45;;;4.18;;
45842;SDS011;31563;51.744;8.252;2023-05-03T05:16:58;4.55;;;3.60;;
45842;SDS011;31563;51.744;8.252;2023-05-03T05:19:26;5.85;;;3.40;;
45842;SDS011;31563;51.744;8.252;2023-05-03T05:21:55;4.40;;;2.90;;
45842;SDS011;31563;51.744;8.252;2023-05-03T05:24:24;5.63;;;2.50;;
45842;SDS011;31563;51.744;8.252;2023-05-03T05:26:52;7.05;;;2.67;;
45842;SDS011;31563;51.744;8.252;2023-05-03T05:29:20;2.50;;;2.20;;
45842;SDS011;31563;51.744;8.252;2023-05-03T05:31:48;3.55;;;2.35;;
45842;SDS011;31563;51.744;8.252;2023-05-03T05:34:17;4.55;;;2.33;;
45842;SDS011;31563;51.744;8.252;2023-05-03T05:36:45;2.25;;;1.67;;
45842;SDS011;31563;51.744;8.252;2023-05-03T05:39:13;3.35;;;1.73;;
45842;SDS011;31563;51.744;8.252;2023-05-03T05:41:43;4.15;;;1.60;;
45842;SDS011;31563;51.744;8.252;2023-05-03T05:44:11;3.13;;;2.03;;
45842;SDS011;31563;51.744;8.252;2023-05-03T05:46:39;2.63;;;1.63;;
45842;SDS011;31563;51.744;8.252;2023-05-03T05:49:07;2.20;;;1.60;;
45842;SDS011;31563;51.744;8.252;2023-05-03T05:51:35;3.25;;;1.90;;
45842;SDS011;31563;51.744;8.252;2023-05-03T05:54:04;3.00;;;1.50;;
45842;SDS011;31563;51.744;8.252;2023-05-03T05:56:33;5.22;;;3.40;;
45842;SDS011;31563;51.744;8.252;2023-05-03T05:59:02;6.20;;;3.88;;
45842;SDS011;31563;51.744;8.252;2023-05-03T06:03:59;6.47;;;4.18;;
45842;SDS011;31563;51.744;8.252;2023-05-03T06:06:27;6.05;;;3.90;;
45842;SDS011;31563;51.744;8.252;2023-05-03T06:08:56;5.82;;;4.07;;
45842;SDS011;31563;51.744;8.252;2023-05-03T06:11:30;4.13;;;2.80;;
45842;SDS011;31563;51.744;8.252;2023-05-03T06:13:59;7.75;;;4.00;;
45842;SDS011;31563;51.744;8.252;2023-05-03T06:16:30;6.18;;;3.70;;
45842;SDS011;31563;51.744;8.252;2023-05-03T06:18:58;6.13;;;3.85;;
45842;SDS011;31563;51.744;8.252;2023-05-03T06:21:26;6.65;;;4.20;;
45842;SDS011;31563;51.744;8.252;2023-05-03T06:23:55;7.82;;;4.13;;
45842;SDS011;31563;51.744;8.252;2023-05-03T06:26:23;6.40;;;3.38;;
45842;SDS011;31563;51.744;8.252;2023-05-03T06:28:51;3.28;;;2.60;;
45842;SDS011;31563;51.744;8.252;2023-05-03T06:31:19;4.28;;;2.00;;
45842;SDS011;31563;51.744;8.252;2023-05-03T06:33:49;3.05;;;2.08;;
45842;SDS011;31563;51.744;8.252;2023-05-03T06:36:17;3.00;;;1.88;;
45842;SDS011;31563;51.744;8.252;2023-05-03T06:38:45;5.32;;;2.58;;
45842;SDS011;31563;51.744;8.252;2023-05-03T06:41:13;5.78;;;2.90;;
45842;SDS011;31563;51.744;8.252;2023-05-03T06:43:41;4.90;;;3.00;;
45842;SDS011;31563;51.744;8.252;2023-05-03T06:46:09;5.85;;;2.95;;
45842;SDS011;31563;51.744;8.252;2023-05-03T06:48:38;5.32;;;2.95;;
45842;SDS011;31563;51.744;8.252;2023-05-03T06:51:08;4.25;;;2.45;;
45842;SDS011;31563;51.744;8.252;2023-05-03T06:53:36;4.68;;;2.58;;
45842;SDS011;31563;51.744;8.252;2023-05-03T06:56:04;5.25;;;2.33;;
45842;SDS011;31563;51.744;8.252;2023-05-03T06:58:32;5.32;;;2.33;;
45842;SDS011;31563;51.744;8.252;2023-05-03T07:01:00;4.65;;;2.13;;
45842;SDS011;31563;51.744;8.252;2023-05-03T07:03:28;3.65;;;1.92;;
45842;SDS011;31563;51.744;8.252;2023-05-03T07:05:58;5.45;;;1.83;;
45842;SDS011;31563;51.744;8.252;2023-05-03T07:08:27;4.70;;;2.47;;
45842;SDS011;31563;51.744;8.252;2023-05-03T07:10:55;3.03;;;1.60;;
45842;SDS011;31563;51.744;8.252;2023-05-03T07:13:24;4.57;;;1.70;;
45842;SDS011;31563;51.744;8.252;2023-05-03T07:15:52;4.25;;;2.20;;
45842;SDS011;31563;51.744;8.252;2023-05-03T07:18:20;5.60;;;2.30;;
45842;SDS011;31563;51.744;8.252;2023-05-03T07:20:48;3.78;;;1.80;;
45842;SDS011;31563;51.744;8.252;2023-05-03T07:23:16;3.20;;;1.80;;
45842;SDS011;31563;51.744;8.252;2023-05-03T07:25:46;3.55;;;2.03;;
45842;SDS011;31563;51.744;8.252;2023-05-03T07:28:15;4.40;;;1.73;;
45842;SDS011;31563;51.744;8.252;2023-05-03T07:30:43;3.70;;;1.35;;
45842;SDS011;31563;51.744;8.252;2023-05-03T07:33:12;6.20;;;1.15;;
45842;SDS011;31563;51.744;8.252;2023-05-03T07:35:40;3.15;;;1.42;;
45842;SDS011;31563;51.744;8.252;2023-05-03T07:38:08;4.03;;;1.20;;
45842;SDS011;31563;51.744;8.252;2023-05-03T07:40:36;4.03;;;1.33;;
45842;SDS011;31563;51.744;8.252;2023-05-03T07:43:06;5.45;;;1.92;;
45842;SDS011;31563;51.744;8.252;2023-05-03T07:45:35;4.60;;;1.60;;
45842;SDS011;31563;51.744;8.252;2023-05-03T07:48:03;4.65;;;2.28;;
45842;SDS011;31563;51.744;8.252;2023-05-03T07:50:32;2.90;;;1.30;;
45842;SDS011;31563;51.744;8.252;2023-05-03T07:53:00;4.28;;;1.38;;
45842;SDS011;31563;51.744;8.252;2023-05-03T07:55:28;2.13;;;1.00;;
45842;SDS011;31563;51.744;8.252;2023-05-03T08:00:27;2.67;;;0.80;;
45842;SDS011;31563;51.744;8.252;2023-05-03T08:02:55;3.97;;;0.90;;
45842;SDS011;31563;51.744;8.252;2023-05-03T08:05:24;3.00;;;0.77;;
45842;SDS011;31563;51.744;8.252;2023-05-03T08:07:52;3.53;;;0.90;;
45842;SDS011;31563;51.744;8.252;2023-05-03T08:10:21;2.40;;;0.60;;
45842;SDS011;31563;51.744;8.252;2023-05-03T08:12:49;3.25;;;0.70;;
45842;SDS011;31563;51.744;8.252;2023-05-03T08:15:17;3.83;;;0.60;;
45842;SDS011;31563;51.744;8.252;2023-05-03T08:17:47;2.58;;;0.80;;
45842;SDS011;31563;51.744;8.252;2023-05-03T08:20:15;4.18;;;0.82;;
45842;SDS011;31563;51.744;8.252;2023-05-03T08:22:43;2.45;;;0.60;;
45842;SDS011;31563;51.744;8.252;2023-05-03T08:25:12;2.05;;;0.57;;
45842;SDS011;31563;51.744;8.252;2023-05-03T08:30:10;3.05;;;0.70;;
45842;SDS011;31563;51.744;8.252;2023-05-03T08:32:38;2.00;;;0.65;;
45842;SDS011;31563;51.744;8.252;2023-05-03T08:35:08;1.90;;;0.70;;
45842;SDS011;31563;51.744;8.252;2023-05-03T08:37:39;1.88;;;0.82;;
45842;SDS011;31563;51.744;8.252;2023-05-03T08:40:08;2.42;;;0.70;;
45842;SDS011;31563;51.744;8.252;2023-05-03T08:42:39;2.20;;;0.88;;
45842;SDS011;31563;51.744;8.252;2023-05-03T08:45:11;1.55;;;0.43;;
45842;SDS011;31563;51.744;8.252;2023-05-03T08:47:41;4.57;;;0.68;;
45842;SDS011;31563;51.744;8.252;2023-05-03T08:50:12;1.52;;;0.40;;
45842;SDS011;31563;51.744;8.252;2023-05-03T08:52:41;2.88;;;0.88;;
45842;SDS011;31563;51.744;8.252;2023-05-03T08:55:10;1.52;;;0.57;;
45842;SDS011;31563;51.744;8.252;2023-05-03T08:57:38;1.25;;;0.52;;
45842;SDS011;31563;51.744;8.252;2023-05-03T09:00:07;1.17;;;0.52;;
45842;SDS011;31563;51.744;8.252;2023-05-03T09:02:38;1.73;;;0.80;;
45842;SDS011;31563;51.744;8.252;2023-05-03T09:07:59;2.30;;;0.80;;
45842;SDS011;31563;51.744;8.252;2023-05-03T09:12:57;1.15;;;0.55;;
45842;SDS011;31563;51.744;8.252;2023-05-03T09:15:26;1.67;;;0.60;;
45842;SDS011;31563;51.744;8.252;2023-05-03T09:18:12;2.65;;;0.80;;
45842;SDS011;31563;51.744;8.252;2023-05-03T09:20:44;1.90;;;0.98;;
45842;SDS011;31563;51.744;8.252;2023-05-03T09:23:18;7.05;;;0.82;;
45842;SDS011;31563;51.744;8.252;2023-05-03T09:25:56;3.83;;;0.60;;
45842;SDS011;31563;51.744;8.252;2023-05-03T09:28:25;1.00;;;0.38;;
45842;SDS011;31563;51.744;8.252;2023-05-03T09:31:02;2.58;;;0.70;;
45842;SDS011;31563;51.744;8.252;2023-05-03T09:33:32;2.00;;;0.40;;
45842;SDS011;31563;51.744;8.252;2023-05-03T09:36:02;1.77;;;0.50;;
45842;SDS011;31563;51.744;8.252;2023-05-03T09:38:32;1.70;;;0.70;;
45842;SDS011;31563;51.744;8.252;2023-05-03T09:41:02;4.75;;;1.35;;
45842;SDS011;31563;51.744;8.252;2023-05-03T09:43:31;3.70;;;0.90;;
45842;SDS011;31563;51.744;8.252;2023-05-03T09:46:06;3.45;;;0.77;;
45842;SDS011;31563;51.744;8.252;2023-05-03T09:48:36;2.35;;;0.60;;
45842;SDS011;31563;51.744;8.252;2023-05-03T09:51:05;3.20;;;0.60;;
45842;SDS011;31563;51.744;8.252;2023-05-03T09:53:34;2.75;;;0.50;;
45842;SDS011;31563;51.744;8.252;2023-05-03T09:56:04;3.10;;;0.73;;
45842;SDS011;31563;51.744;8.252;2023-05-03T09:58:35;1.65;;;0.60;;
45842;SDS011;31563;51.744;8.252;2023-05-03T10:01:03;2.53;;;0.35;;
45842;SDS011;31563;51.744;8.252;2023-05-03T10:06:04;1.45;;;0.50;;
45842;SDS011;31563;51.744;8.252;2023-05-03T10:08:46;2.90;;;0.43;;
45842;SDS011;31563;51.744;8.252;2023-05-03T10:11:18;1.05;;;0.40;;
45842;SDS011;31563;51.744;8.252;2023-05-03T10:13:49;2.45;;;0.40;;
45842;SDS011;31563;51.744;8.252;2023-05-03T10:16:19;1.23;;;0.35;;
45842;SDS011;31563;51.744;8.252;2023-05-03T10:18:53;1.60;;;0.50;;
45842;SDS011;31563;51.744;8.252;2023-05-03T10:21:34;1.15;;;0.47;;
45842;SDS011;31563;51.744;8.252;2023-05-03T10:24:09;1.70;;;0.40;;
45842;SDS011;31563;51.744;8.252;2023-05-03T10:26:39;1.48;;;0.50;;
45842;SDS011;31563;51.744;8.252;2023-05-03T10:32:27;7.43;;;0.85;;
45842;SDS011;31563;51.744;8.252;2023-05-03T10:35:00;3.17;;;0.95;;
45842;SDS011;31563;51.744;8.252;2023-05-03T10:37:32;4.40;;;1.17;;
45842;SDS011;31563;51.744;8.252;2023-05-03T10:40:04;4.93;;;0.90;;
45842;SDS011;31563;51.744;8.252;2023-05-03T10:42:35;2.63;;;0.63;;
45842;SDS011;31563;51.744;8.252;2023-05-03T10:45:04;6.45;;;0.80;;
45842;SDS011;31563;51.744;8.252;2023-05-03T10:47:35;6.20;;;1.08;;
45842;SDS011;31563;51.744;8.252;2023-05-03T10:50:24;3.67;;;0.82;;
45842;SDS011;31563;51.744;8.252;2023-05-03T10:52:54;4.63;;;0.70;;
45842;SDS011;31563;51.744;8.252;2023-05-03T10:55:22;4.63;;;0.65;;
45842;SDS011;31563;51.744;8.252;2023-05-03T10:57:52;2.23;;;0.67;;
45842;SDS011;31563;51.744;8.252;2023-05-03T11:00:27;3.60;;;0.85;;
45842;SDS011;31563;51.744;8.252;2023-05-03T11:03:12;3.45;;;0.45;;
45842;SDS011;31563;51.744;8.252;2023-05-03T11:05:53;1.85;;;0.52;;
45842;SDS011;31563;51.744;8.252;2023-05-03T11:08:24;1.50;;;0.30;;
45842;SDS011;31563;51.744;8.252;2023-05-03T11:10:57;3.00;;;0.45;;
45842;SDS011;31563;51.744;8.252;2023-05-03T11:13:27;2.25;;;0.30;;
45842;SDS011;31563;51.744;8.252;2023-05-03T11:15:55;1.58;;;0.50;;
45842;SDS011;31563;51.744;8.252;2023-05-03T11:18:24;1.42;;;0.52;;
45842;SDS011;31563;51.744;8.252;2023-05-03T11:20:53;1.52;;;0.40;;
45842;SDS011;31563;51.744;8.252;2023-05-03T11:23:24;2.55;;;0.50;;
45842;SDS011;31563;51.744;8.252;2023-05-03T11:25:54;3.42;;;0.70;;
45842;SDS011;31563;51.744;8.252;2023-05-03T11:28:23;2.70;;;0.47;;
45842;SDS011;31563;51.744;8.252;2023-05-03T11:33:20;2.07;;;0.90;;
45842;SDS011;31563;51.744;8.252;2023-05-03T11:35:48;3.55;;;1.00;;
45842;SDS011;31563;51.744;8.252;2023-05-03T11:40:47;3.58;;;1.05;;
45842;SDS011;31563;51.744;8.252;2023-05-03T11:43:15;2.70;;;1.08;;
45842;SDS011;31563;51.744;8.252;2023-05-03T11:45:44;1.77;;;0.87;;
45842;SDS011;31563;51.744;8.252;2023-05-03T11:48:14;2.00;;;1.08;;
45842;SDS011;31563;51.744;8.252;2023-05-03T11:53:12;2.97;;;1.23;;
45842;SDS011;31563;51.744;8.252;2023-05-03T11:55:41;3.60;;;1.27;;
45842;SDS011;31563;51.744;8.252;2023-05-03T11:58:13;3.47;;;1.45;;
45842;SDS011;31563;51.744;8.252;2023-05-03T12:00:43;3.30;;;0.85;;
45842;SDS011;31563;51.744;8.252;2023-05-03T12:03:15;4.03;;;1.10;;
45842;SDS011;31563;51.744;8.252;2023-05-03T12:05:45;3.08;;;1.00;;
45842;SDS011;31563;51.744;8.252;2023-05-03T12:08:15;3.03;;;0.88;;
45842;SDS011;31563;51.744;8.252;2023-05-03T12:10:47;3.10;;;0.93;;
45842;SDS011;31563;51.744;8.252;2023-05-03T12:13:27;3.05;;;0.80;;
45842;SDS011;31563;51.744;8.252;2023-05-03T12:15:58;5.38;;;1.00;;
45842;SDS011;31563;51.744;8.252;2023-05-03T12:18:45;4.40;;;1.25;;
45842;SDS011;31563;51.744;8.252;2023-05-03T12:21:17;5.20;;;1.00;;
45842;SDS011;31563;51.744;8.252;2023-05-03T12:23:48;3.03;;;1.00;;
45842;SDS011;31563;51.744;8.252;2023-05-03T12:26:21;2.33;;;0.68;;
45842;SDS011;31563;51.744;8.252;2023-05-03T12:28:52;1.00;;;0.60;;
45842;SDS011;31563;51.744;8.252;2023-05-03T12:31:22;1.70;;;0.77;;
45842;SDS011;31563;51.744;8.252;2023-05-03T12:33:54;5.88;;;1.30;;
45842;SDS011;31563;51.744;8.252;2023-05-03T12:36:42;1.95;;;0.82;;
45842;SDS011;31563;51.744;8.252;2023-05-03T12:39:14;3.17;;;0.88;;
45842;SDS011;31563;51.744;8.252;2023-05-03T12:41:47;3.22;;;0.93;;
45842;SDS011;31563;51.744;8.252;2023-05-03T12:44:19;2.47;;;0.93;;
45842;SDS011;31563;51.744;8.252;2023-05-03T12:46:49;1.55;;;0.50;;
45842;SDS011;31563;51.744;8.252;2023-05-03T12:49:18;3.22;;;0.65;;
45842;SDS011;31563;51.744;8.252;2023-05-03T12:51:49;1.58;;;0.80;;
45842;SDS011;31563;51.744;8.252;2023-05-03T12:54:37;1.83;;;0.70;;
45842;SDS011;31563;51.744;8.252;2023-05-03T12:57:07;2.03;;;0.60;;
45842;SDS011;31563;51.744;8.252;2023-05-03T12:59:42;1.83;;;0.60;;
45842;SDS011;31563;51.744;8.252;2023-05-03T13:02:17;1.38;;;0.80;;
45842;SDS011;31563;51.744;8.252;2023-05-03T13:04:49;2.92;;;0.80;;
45842;SDS011;31563;51.744;8.252;2023-05-03T13:07:24;1.50;;;0.60;;
45842;SDS011;31563;51.744;8.252;2023-05-03T13:09:56;1.90;;;0.85;;
45842;SDS011;31563;51.744;8.252;2023-05-03T13:12:28;1.73;;;0.70;;
45842;SDS011;31563;51.744;8.252;2023-05-03T13:15:00;1.17;;;0.75;;
45842;SDS011;31563;51.744;8.252;2023-05-03T13:17:30;1.70;;;0.63;;
45842;SDS011;31563;51.744;8.252;2023-05-03T13:19:58;2.13;;;0.80;;
45842;SDS011;31563;51.744;8.252;2023-05-03T13:22:26;1.65;;;0.68;;
45842;SDS011;31563;51.744;8.252;2023-05-03T13:24:54;2.35;;;0.82;;
45842;SDS011;31563;51.744;8.252;2023-05-03T13:27:23;1.23;;;0.50;;
45842;SDS011;31563;51.744;8.252;2023-05-03T13:29:51;2.20;;;0.67;;
45842;SDS011;31563;51.744;8.252;2023-05-03T13:32:21;0.63;;;0.40;;
45842;SDS011;31563;51.744;8.252;2023-05-03T13:34:49;2.40;;;0.70;;
45842;SDS011;31563;51.744;8.252;2023-05-03T13:37:17;5.55;;;0.77;;
45842;SDS011;31563;51.744;8.252;2023-05-03T13:39:46;4.95;;;2.00;;
45842;SDS011;31563;51.744;8.252;2023-05-03T13:42:14;8.27;;;2.30;;
45842;SDS011;31563;51.744;8.252;2023-05-03T13:44:43;8.88;;;1.90;;
45842;SDS011;31563;51.744;8.252;2023-05-03T13:47:12;6.32;;;1.70;;
45842;SDS011;31563;51.744;8.252;2023-05-03T13:49:41;5.05;;;1.92;;
45842;SDS011;31563;51.744;8.252;2023-05-03T13:52:10;5.50;;;1.58;;
45842;SDS011;31563;51.744;8.252;2023-05-03T13:54:38;9.82;;;1.73;;
45842;SDS011;31563;51.744;8.252;2023-05-03T13:57:07;14.77;;;1.77;;
45842;SDS011;31563;51.744;8.252;2023-05-03T13:59:36;10.70;;;2.22;;
45842;SDS011;31563;51.744;8.252;2023-05-03T14:02:04;7.40;;;1.70;;
45842;SDS011;31563;51.744;8.252;2023-05-03T14:04:32;8.17;;;1.37;;
45842;SDS011;31563;51.744;8.252;2023-05-03T14:07:02;8.60;;;2.40;;
45842;SDS011;31563;51.744;8.252;2023-05-03T14:09:30;7.95;;;1.75;;
45842;SDS011;31563;51.744;8.252;2023-05-03T14:12:04;10.13;;;1.70;;
45842;SDS011;31563;51.744;8.252;2023-05-03T14:14:33;8.45;;;1.90;;
45842;SDS011;31563;51.744;8.252;2023-05-03T14:17:02;7.82;;;1.30;;
45842;SDS011;31563;51.744;8.252;2023-05-03T14:19:33;9.77;;;1.57;;
45842;SDS011;31563;51.744;8.252;2023-05-03T14:22:03;10.95;;;1.50;;
45842;SDS011;31563;51.744;8.252;2023-05-03T14:24:31;9.00;;;1.58;;
45842;SDS011;31563;51.744;8.252;2023-05-03T14:26:59;10.07;;;1.60;;
45842;SDS011;31563;51.744;8.252;2023-05-03T14:29:28;7.65;;;1.45;;
45842;SDS011;31563;51.744;8.252;2023-05-03T14:31:56;9.93;;;1.60;;
45842;SDS011;31563;51.744;8.252;2023-05-03T14:34:24;8.05;;;1.25;;
45842;SDS011;31563;51.744;8.252;2023-05-03T14:36:54;7.85;;;1.20;;
45842;SDS011;31563;51.744;8.252;2023-05-03T14:39:23;6.80;;;1.00;;
45842;SDS011;31563;51.744;8.252;2023-05-03T14:41:51;7.95;;;1.48;;
45842;SDS011;31563;51.744;8.252;2023-05-03T14:44:21;4.45;;;0.98;;
45842;SDS011;31563;51.744;8.252;2023-05-03T14:46:50;6.82;;;1.30;;
45842;SDS011;31563;51.744;8.252;2023-05-03T14:49:19;6.45;;;1.05;;
45842;SDS011;31563;51.744;8.252;2023-05-03T14:51:47;7.53;;;1.00;;
45842;SDS011;31563;51.744;8.252;2023-05-03T14:54:15;5.15;;;0.93;;
45842;SDS011;31563;51.744;8.252;2023-05-03T14:56:46;5.85;;;1.15;;
45842;SDS011;31563;51.744;8.252;2023-05-03T14:59:14;2.83;;;0.77;;
45842;SDS011;31563;51.744;8.252;2023-05-03T15:01:42;3.17;;;1.10;;
45842;SDS011;31563;51.744;8.252;2023-05-03T15:04:10;5.20;;;1.30;;
45842;SDS011;31563;51.744;8.252;2023-05-03T15:06:38;4.25;;;0.82;;
45842;SDS011;31563;51.744;8.252;2023-05-03T15:09:08;3.72;;;1.00;;
45842;SDS011;31563;51.744;8.252;2023-05-03T15:11:38;4.00;;;0.77;;
45842;SDS011;31563;51.744;8.252;2023-05-03T15:14:08;5.13;;;1.20;;
45842;SDS011;31563;51.744;8.252;2023-05-03T15:16:36;4.70;;;1.38;;
45842;SDS011;31563;51.744;8.252;2023-05-03T15:19:04;3.65;;;0.80;;
45842;SDS011;31563;51.744;8.252;2023-05-03T15:21:43;5.40;;;0.90;;
45842;SDS011;31563;51.744;8.252;2023-05-03T15:24:12;4.72;;;1.00;;
45842;SDS011;31563;51.744;8.252;2023-05-03T15:26:40;3.87;;;0.70;;
45842;SDS011;31563;51.744;8.252;2023-05-03T15:29:10;3.20;;;1.02;;
45842;SDS011;31563;51.744;8.252;2023-05-03T15:31:38;6.65;;;0.70;;
45842;SDS011;31563;51.744;8.252;2023-05-03T15:34:07;4.68;;;0.88;;